createdAt,value
2022-09-28T00:02:03.066Z,94.20
2022-09-28T00:07:24.929Z,93.18
2022-09-28T00:12:46.630Z,93.65
2022-09-28T00:18:08.352Z,93.75
2022-09-28T00:23:30.157Z,94.48
2022-09-28T00:28:53.611Z,94.81
2022-09-28T00:34:16.000Z,94.44
2022-09-28T00:39:41.215Z,94.30
2022-09-28T00:45:03.017Z,94.16
2022-09-28T00:50:29.034Z,94.70
2022-09-28T00:55:57.097Z,94.37
2022-09-28T01:01:18.908Z,93.79
2022-09-28T01:06:40.804Z,94.79
2022-09-28T01:12:02.790Z,95.35
2022-09-28T01:17:24.573Z,95.54
2022-09-28T01:23:17.198Z,96.46
2022-09-28T01:28:42.967Z,96.69
2022-09-28T01:34:13.049Z,97.93
2022-09-28T01:39:39.946Z,96.45
2022-09-28T01:45:07.849Z,97.32
2022-09-28T01:50:35.105Z,97.25
2022-09-28T01:56:03.652Z,98.65
2022-09-28T02:01:34.983Z,98.34
2022-09-28T02:07:02.372Z,98.15
2022-09-28T02:12:26.574Z,97.99
2022-09-28T02:17:49.080Z,98.79
2022-09-28T02:23:11.212Z,97.05
2022-09-28T02:28:32.997Z,97.12
2022-09-28T02:33:57.704Z,97.47
2022-09-28T02:39:19.521Z,95.40
2022-09-28T02:44:53.901Z,95.86
2022-09-28T02:50:24.037Z,95.81
2022-09-28T02:56:20.448Z,96.84
2022-09-28T03:02:00.506Z,97.67
2022-09-28T03:07:27.931Z,98.83
2022-09-28T03:12:52.945Z,98.37
2022-09-28T03:18:14.680Z,98.07
2022-09-28T03:23:36.413Z,96.31
2022-09-28T03:28:58.094Z,95.91
2022-09-28T03:34:19.773Z,96.88
2022-09-28T03:39:41.487Z,96.70
2022-09-28T03:45:03.528Z,96.15
2022-09-28T03:50:25.248Z,96.27
2022-09-28T03:55:46.989Z,96.83
2022-09-28T04:01:17.626Z,96.93
2022-09-28T04:06:40.267Z,97.57
2022-09-28T04:12:04.349Z,96.70
2022-09-28T04:17:26.426Z,97.79
2022-09-28T04:22:48.197Z,98.60
2022-09-28T04:28:28.300Z,99.17
2022-09-28T04:33:50.169Z,100.00
2022-09-28T04:39:13.176Z,100.00
2022-09-28T04:44:34.933Z,100.00
2022-09-28T04:49:56.734Z,100.00
2022-09-28T04:55:18.431Z,100.00
2022-09-28T05:00:40.134Z,99.95
2022-09-28T05:06:02.287Z,99.69
2022-09-28T05:11:24.156Z,100.00
2022-09-28T05:16:46.111Z,100.00
2022-09-28T05:22:11.473Z,100.00
2022-09-28T05:27:33.182Z,100.00
2022-09-28T05:32:54.890Z,100.00
2022-09-28T05:38:16.657Z,100.00
2022-09-28T05:43:39.394Z,100.00
2022-09-28T05:49:01.111Z,100.00
2022-09-28T05:54:22.865Z,100.00
2022-09-28T05:59:44.542Z,100.00
2022-09-28T06:05:06.480Z,100.00
2022-09-28T06:10:28.646Z,100.00
2022-09-28T06:15:50.438Z,100.00
2022-09-28T06:21:15.280Z,100.00
2022-09-28T06:26:36.989Z,100.00
2022-09-28T06:31:58.738Z,100.00
2022-09-28T06:37:20.488Z,100.00
2022-09-28T06:42:42.196Z,100.00
2022-09-28T06:48:05.108Z,100.00
2022-09-28T06:53:28.740Z,100.00
2022-09-28T06:58:50.451Z,100.00
2022-09-28T07:04:12.126Z,100.00
2022-09-28T07:09:37.309Z,100.00
2022-09-28T07:15:03.855Z,100.00
2022-09-28T07:20:26.208Z,100.00
2022-09-28T07:25:50.173Z,100.00
2022-09-28T07:31:12.206Z,100.00
2022-09-28T07:36:35.174Z,100.00
2022-09-28T07:42:02.429Z,100.00
2022-09-28T07:47:34.660Z,100.00
2022-09-28T07:52:57.620Z,100.00
2022-09-28T07:58:20.824Z,100.00
2022-09-28T08:03:48.001Z,97.84
2022-09-28T08:09:09.741Z,100.00
2022-09-28T08:14:34.275Z,97.94
2022-09-28T08:20:14.402Z,98.20
2022-09-28T08:25:38.196Z,96.17
2022-09-28T08:31:03.876Z,97.75
2022-09-28T08:36:25.633Z,97.90
2022-09-28T08:42:23.018Z,97.21
2022-09-28T08:48:15.133Z,97.81
2022-09-28T08:54:14.469Z,95.17
2022-09-28T08:59:58.447Z,96.35
2022-09-28T09:05:29.396Z,93.99
2022-09-28T09:11:22.708Z,91.75
2022-09-28T09:17:12.748Z,92.59
2022-09-28T09:22:49.359Z,90.71
2022-09-28T09:28:48.321Z,89.79
2022-09-28T09:34:25.937Z,90.21
2022-09-28T09:40:02.175Z,89.83
2022-09-28T09:45:30.062Z,90.99
2022-09-28T09:50:59.126Z,89.08
2022-09-28T09:56:34.529Z,86.75
2022-09-28T10:01:56.676Z,84.38
2022-09-28T10:07:24.127Z,84.39
2022-09-28T10:12:46.588Z,82.60
2022-09-28T10:18:14.307Z,85.08
2022-09-28T10:23:37.868Z,82.13
2022-09-28T10:29:04.198Z,83.97
2022-09-28T10:34:28.636Z,84.79
2022-09-28T10:39:55.787Z,84.17
2022-09-28T10:45:23.305Z,81.77
2022-09-28T10:50:57.869Z,78.85
2022-09-28T10:56:23.080Z,77.96
2022-09-28T11:01:44.918Z,77.11
2022-09-28T11:07:18.000Z,74.86
2022-09-28T11:12:44.168Z,76.27
2022-09-28T11:18:25.265Z,74.71
2022-09-28T11:24:07.290Z,77.86
2022-09-28T11:29:43.130Z,75.34
2022-09-28T11:35:16.845Z,75.51
2022-09-28T11:40:51.365Z,74.28
2022-09-28T11:46:19.663Z,73.96
2022-09-28T11:51:43.766Z,71.39
2022-09-28T11:57:11.144Z,72.50
2022-09-28T12:03:00.575Z,74.37
2022-09-28T12:08:40.105Z,71.75
2022-09-28T12:14:04.918Z,72.29
2022-09-28T12:19:39.890Z,69.30
2022-09-28T12:25:03.774Z,67.37
2022-09-28T12:30:30.818Z,67.65
2022-09-28T12:36:07.688Z,64.98
2022-09-28T12:41:55.821Z,65.46
2022-09-28T12:47:55.187Z,63.69
2022-09-28T12:53:41.809Z,63.15
2022-09-28T12:59:23.496Z,61.89
2022-09-28T13:05:05.629Z,62.19
2022-09-28T13:10:36.811Z,63.15
2022-09-28T13:16:05.725Z,61.72
2022-09-28T13:21:40.866Z,60.19
2022-09-28T13:27:10.292Z,61.44
2022-09-28T13:32:33.824Z,60.44
2022-09-28T13:38:17.432Z,60.21
2022-09-28T13:44:10.660Z,62.17
2022-09-28T13:49:48.029Z,61.00
2022-09-28T13:55:28.722Z,62.27
2022-09-28T14:01:13.626Z,60.90
2022-09-28T14:06:35.458Z,61.31
2022-09-28T14:12:49.543Z,60.79
2022-09-28T14:18:16.973Z,60.26
2022-09-28T14:23:50.613Z,60.09
2022-09-28T14:29:28.540Z,61.11
2022-09-28T14:35:00.325Z,60.83
2022-09-28T14:40:49.765Z,61.08
2022-09-28T14:46:11.960Z,60.20
2022-09-28T14:51:35.353Z,60.98
2022-09-28T14:57:04.175Z,59.98
2022-09-28T15:02:36.047Z,59.86
2022-09-28T15:07:58.275Z,61.27
2022-09-28T15:13:25.004Z,59.63
2022-09-28T15:19:18.689Z,59.50
2022-09-28T15:24:46.062Z,59.80
2022-09-28T15:30:33.633Z,62.91
2022-09-28T15:36:02.477Z,61.42
2022-09-28T15:41:25.649Z,60.70
2022-09-28T15:46:56.984Z,62.34
2022-09-28T15:52:35.977Z,60.72
2022-09-28T15:58:13.238Z,61.43
2022-09-28T16:03:35.025Z,62.96
2022-09-28T16:08:56.719Z,65.03
2022-09-28T16:14:21.932Z,64.32
2022-09-28T16:19:43.771Z,63.96
2022-09-28T16:25:05.780Z,64.34
2022-09-28T16:30:32.292Z,62.97
2022-09-28T16:35:54.023Z,64.79
2022-09-28T16:41:19.469Z,63.62
2022-09-28T16:46:44.298Z,63.99
2022-09-28T16:52:13.335Z,64.45
2022-09-28T16:57:35.400Z,64.28
2022-09-28T17:02:58.462Z,64.07
2022-09-28T17:08:23.038Z,64.65
2022-09-28T17:13:45.963Z,64.49
2022-09-28T17:19:23.272Z,64.25
2022-09-28T17:24:46.120Z,65.59
2022-09-28T17:30:09.921Z,68.03
2022-09-28T17:35:34.101Z,70.04
2022-09-28T17:40:58.013Z,71.78
2022-09-28T17:46:27.226Z,72.17
2022-09-28T17:51:50.242Z,73.13
2022-09-28T17:57:11.936Z,73.17
2022-09-28T18:02:33.690Z,74.18
2022-09-28T18:07:55.990Z,74.84
2022-09-28T18:13:17.682Z,75.59
2022-09-28T18:18:39.901Z,76.17
2022-09-28T18:24:01.830Z,76.98
2022-09-28T18:29:23.574Z,78.08
2022-09-28T18:34:45.545Z,78.68
2022-09-28T18:40:09.396Z,79.26
2022-09-28T18:45:31.321Z,80.99
2022-09-28T18:50:53.013Z,82.38
2022-09-28T18:56:20.947Z,82.79
2022-09-28T19:01:43.520Z,84.11
2022-09-28T19:07:09.001Z,85.08
2022-09-28T19:12:34.807Z,85.43
2022-09-28T19:17:57.093Z,85.99
2022-09-28T19:23:18.817Z,86.48
2022-09-28T19:28:40.530Z,86.73
2022-09-28T19:34:02.567Z,87.26
2022-09-28T19:39:24.335Z,87.40
2022-09-28T19:44:46.409Z,87.86
2022-09-28T19:50:10.195Z,88.01
2022-09-28T19:55:37.113Z,88.11
2022-09-28T20:00:59.259Z,88.41
2022-09-28T20:06:22.826Z,88.86
2022-09-28T20:11:46.587Z,88.61
2022-09-28T20:17:09.583Z,88.42
2022-09-28T20:22:31.443Z,87.62
2022-09-28T20:27:53.535Z,87.77
2022-09-28T20:33:19.099Z,87.37
2022-09-28T20:38:51.536Z,87.57
2022-09-28T20:44:13.371Z,87.65
2022-09-28T20:49:35.112Z,87.47
2022-09-28T20:54:56.853Z,87.67
2022-09-28T21:00:18.661Z,87.39
2022-09-28T21:05:40.428Z,87.73
2022-09-28T21:11:02.246Z,88.44
2022-09-28T21:16:27.182Z,89.31
2022-09-28T21:21:48.933Z,88.49
2022-09-28T21:27:10.651Z,88.31
2022-09-28T21:32:35.183Z,88.66
2022-09-28T21:37:57.221Z,88.02
2022-09-28T21:43:18.937Z,88.40
2022-09-28T21:48:41.264Z,88.41
2022-09-28T21:54:03.235Z,88.50
2022-09-28T21:59:25.076Z,88.19
2022-09-28T22:04:46.912Z,87.89
2022-09-28T22:10:12.655Z,88.03
2022-09-28T22:15:34.485Z,87.58
2022-09-28T22:21:30.020Z,86.96
2022-09-28T22:26:51.844Z,86.82
2022-09-28T22:32:13.598Z,86.09
2022-09-28T22:37:35.329Z,85.83
2022-09-28T22:42:57.040Z,85.27
2022-09-28T22:48:18.763Z,85.60
2022-09-28T22:53:40.485Z,86.93
2022-09-28T22:59:02.268Z,87.79
2022-09-28T23:04:24.001Z,88.01
2022-09-28T23:09:45.721Z,88.47
2022-09-28T23:15:08.443Z,87.70
2022-09-28T23:20:30.259Z,87.78
2022-09-28T23:25:53.064Z,87.69
2022-09-28T23:31:20.689Z,87.02
2022-09-28T23:36:42.430Z,87.04
2022-09-28T23:42:04.414Z,86.86
2022-09-28T23:47:26.484Z,87.57
2022-09-28T23:52:48.453Z,87.10
2022-09-28T23:58:11.621Z,86.98
